createdAt,value
2018-01-13T00:01:26.277Z,43.75
2018-01-13T00:03:52.077Z,43.33
2018-01-13T00:06:17.878Z,43.09
2018-01-13T00:08:43.741Z,42.93
2018-01-13T00:11:09.545Z,42.96
2018-01-13T00:13:35.389Z,42.90
2018-01-13T00:16:01.235Z,42.93
2018-01-13T00:18:27.167Z,43.25
2018-01-13T00:20:52.977Z,43.28
2018-01-13T00:23:18.779Z,42.58
2018-01-13T00:25:44.581Z,42.92
2018-01-13T00:28:10.561Z,42.72
2018-01-13T00:30:36.360Z,42.86
2018-01-13T00:33:02.285Z,42.76
2018-01-13T00:35:28.145Z,43.01
2018-01-13T00:37:53.940Z,42.50
2018-01-13T00:40:19.949Z,42.59
2018-01-13T00:42:45.749Z,43.27
2018-01-13T00:45:11.555Z,42.68
2018-01-13T00:47:37.545Z,42.50
2018-01-13T00:50:03.361Z,42.85
2018-01-13T00:52:29.259Z,42.57
2018-01-13T00:54:55.062Z,42.22
2018-01-13T00:57:20.862Z,42.45
2018-01-13T00:59:46.679Z,42.46
2018-01-13T01:02:12.634Z,42.43
2018-01-13T01:04:38.468Z,42.46
2018-01-13T01:07:04.273Z,42.53
2018-01-13T01:09:30.082Z,42.53
2018-01-13T01:11:55.890Z,42.50
2018-01-13T01:14:22.781Z,42.70
2018-01-13T01:16:48.618Z,42.46
2018-01-13T01:19:14.425Z,42.72
2018-01-13T01:21:40.664Z,42.73
2018-01-13T01:24:06.530Z,42.72
2018-01-13T01:26:32.469Z,43.03
2018-01-13T01:28:58.305Z,43.49
2018-01-13T01:31:24.118Z,43.35
2018-01-13T01:33:49.933Z,43.76
2018-01-13T01:36:15.857Z,43.35
2018-01-13T01:38:41.813Z,42.96
2018-01-13T01:41:07.614Z,42.60
2018-01-13T01:43:33.658Z,42.84
2018-01-13T01:45:59.469Z,42.99
2018-01-13T01:48:25.493Z,42.66
2018-01-13T01:50:51.441Z,42.87
2018-01-13T01:53:17.245Z,42.74
2018-01-13T01:55:43.045Z,42.97
2018-01-13T01:58:08.845Z,42.91
2018-01-13T02:00:34.742Z,42.53
2018-01-13T02:03:00.585Z,42.53
2018-01-13T02:05:26.385Z,42.59
2018-01-13T02:07:52.253Z,42.60
2018-01-13T02:10:18.054Z,42.90
2018-01-13T02:12:43.893Z,42.81
2018-01-13T02:15:09.698Z,42.54
2018-01-13T02:17:35.712Z,42.62
2018-01-13T02:20:01.515Z,42.19
2018-01-13T02:22:28.573Z,42.38
2018-01-13T02:24:54.391Z,42.79
2018-01-13T02:27:22.382Z,42.44
2018-01-13T02:29:48.194Z,42.58
2018-01-13T02:32:14.002Z,42.50
2018-01-13T02:34:39.837Z,42.14
2018-01-13T02:37:05.641Z,42.07
2018-01-13T02:39:31.615Z,42.52
2018-01-13T02:41:57.503Z,42.06
2018-01-13T02:44:23.342Z,42.25
2018-01-13T02:46:49.146Z,42.52
2018-01-13T02:49:15.182Z,42.36
2018-01-13T02:51:41.346Z,42.69
2018-01-13T02:54:07.186Z,42.33
2018-01-13T02:56:33.262Z,42.21
2018-01-13T02:58:59.229Z,42.08
2018-01-13T03:01:25.113Z,42.08
2018-01-13T03:03:50.946Z,42.26
2018-01-13T03:06:16.818Z,42.21
2018-01-13T03:08:42.629Z,42.01
2018-01-13T03:11:08.448Z,42.06
2018-01-13T03:13:34.372Z,42.15
2018-01-13T03:16:00.371Z,42.03
2018-01-13T03:18:26.182Z,42.07
2018-01-13T03:20:52.032Z,42.04
2018-01-13T03:23:17.978Z,41.68
2018-01-13T03:25:43.786Z,41.90
2018-01-13T03:28:09.711Z,42.02
2018-01-13T03:30:35.828Z,42.03
2018-01-13T03:33:01.646Z,43.26
2018-01-13T03:35:27.463Z,42.78
2018-01-13T03:37:53.409Z,42.06
2018-01-13T03:40:19.323Z,41.97
2018-01-13T03:42:45.169Z,42.04
2018-01-13T03:45:11.005Z,42.14
2018-01-13T03:47:36.814Z,41.98
2018-01-13T03:50:02.666Z,41.64
2018-01-13T03:52:28.485Z,41.79
2018-01-13T03:54:54.331Z,41.83
2018-01-13T03:57:20.125Z,42.16
2018-01-13T03:59:45.966Z,41.94
2018-01-13T04:02:11.769Z,41.64
2018-01-13T04:04:38.654Z,41.99
2018-01-13T04:07:04.494Z,41.66
2018-01-13T04:09:30.299Z,42.35
2018-01-13T04:11:56.123Z,42.10
2018-01-13T04:14:21.923Z,41.65
2018-01-13T04:16:47.754Z,41.86
2018-01-13T04:19:13.566Z,42.43
2018-01-13T04:21:39.481Z,41.91
2018-01-13T04:24:05.325Z,41.80
2018-01-13T04:26:31.138Z,41.58
2018-01-13T04:28:56.994Z,41.81
2018-01-13T04:31:22.798Z,41.75
2018-01-13T04:33:48.750Z,41.94
2018-01-13T04:36:14.734Z,41.87
2018-01-13T04:38:40.642Z,42.13
2018-01-13T04:41:06.482Z,41.70
2018-01-13T04:43:32.294Z,41.74
2018-01-13T04:45:58.238Z,41.88
2018-01-13T04:48:24.083Z,41.79
2018-01-13T04:50:49.927Z,41.41
2018-01-13T04:53:16.242Z,41.28
2018-01-13T04:55:42.093Z,41.55
2018-01-13T04:58:07.942Z,41.70
2018-01-13T05:00:33.973Z,41.73
2018-01-13T05:02:59.778Z,41.32
2018-01-13T05:05:25.622Z,41.50
2018-01-13T05:07:51.466Z,41.38
2018-01-13T05:10:17.309Z,41.43
2018-01-13T05:12:43.107Z,41.32
2018-01-13T05:15:08.999Z,41.61
2018-01-13T05:17:34.978Z,41.25
2018-01-13T05:20:00.927Z,41.30
2018-01-13T05:22:26.734Z,41.12
2018-01-13T05:24:52.542Z,41.26
2018-01-13T05:27:18.513Z,41.14
2018-01-13T05:29:44.326Z,41.55
2018-01-13T05:32:10.130Z,41.23
2018-01-13T05:34:36.033Z,41.25
2018-01-13T05:37:01.842Z,41.55
2018-01-13T05:39:27.686Z,41.55
2018-01-13T05:41:53.485Z,41.20
2018-01-13T05:44:19.334Z,40.95
2018-01-13T05:46:45.141Z,41.33
2018-01-13T05:49:10.994Z,41.07
2018-01-13T05:51:36.805Z,41.21
2018-01-13T05:54:02.690Z,40.84
2018-01-13T05:56:28.495Z,40.95
2018-01-13T05:58:54.309Z,40.56
2018-01-13T06:01:20.131Z,40.36
2018-01-13T06:03:45.937Z,40.58
2018-01-13T06:08:57.170Z,41.06
2018-01-13T06:11:23.098Z,40.17
2018-01-13T06:13:48.901Z,40.08
2018-01-13T06:16:14.893Z,40.20
2018-01-13T06:18:40.705Z,40.15
2018-01-13T06:21:06.552Z,39.98
2018-01-13T06:23:32.493Z,39.97
2018-01-13T06:25:58.314Z,39.75
2018-01-13T06:28:24.250Z,39.88
2018-01-13T06:30:50.057Z,39.98
2018-01-13T06:33:15.853Z,39.85
2018-01-13T06:35:41.657Z,40.19
2018-01-13T06:38:07.503Z,40.20
2018-01-13T06:40:33.307Z,39.95
2018-01-13T06:42:59.158Z,39.64
2018-01-13T06:45:24.969Z,39.90
2018-01-13T06:47:50.777Z,39.85
2018-01-13T06:50:16.721Z,39.95
2018-01-13T06:52:42.531Z,40.09
2018-01-13T06:55:08.393Z,39.97
2018-01-13T06:57:34.201Z,39.62
2018-01-13T07:00:00.024Z,40.09
2018-01-13T07:02:25.854Z,40.06
2018-01-13T07:04:51.867Z,39.45
2018-01-13T07:07:17.665Z,39.67
2018-01-13T07:09:43.475Z,39.63
2018-01-13T07:12:09.297Z,39.86
2018-01-13T07:14:35.118Z,39.75
2018-01-13T07:17:00.987Z,39.66
2018-01-13T07:19:26.959Z,39.74
2018-01-13T07:21:52.804Z,39.67
2018-01-13T07:24:18.646Z,39.62
2018-01-13T07:26:44.494Z,39.45
2018-01-13T07:29:10.462Z,39.46
2018-01-13T07:31:36.310Z,39.49
2018-01-13T07:34:02.373Z,39.35
2018-01-13T07:36:28.382Z,39.73
2018-01-13T07:38:54.368Z,39.88
2018-01-13T07:41:20.314Z,39.73
2018-01-13T07:43:46.162Z,39.63
2018-01-13T07:46:11.970Z,39.46
2018-01-13T07:48:37.815Z,39.22
2018-01-13T07:51:03.790Z,39.32
2018-01-13T07:53:29.638Z,38.91
2018-01-13T07:55:55.486Z,39.03
2018-01-13T07:58:21.289Z,39.07
2018-01-13T08:00:47.286Z,38.96
2018-01-13T08:03:13.094Z,39.10
2018-01-13T08:05:38.927Z,39.35
2018-01-13T08:08:04.914Z,39.05
2018-01-13T08:10:30.909Z,38.82
2018-01-13T08:12:56.720Z,38.71
2018-01-13T08:15:22.582Z,38.70
2018-01-13T08:17:48.546Z,37.81
2018-01-13T08:20:14.362Z,36.94
2018-01-13T08:22:40.223Z,36.83
2018-01-13T08:25:06.041Z,36.91
2018-01-13T08:27:31.906Z,36.72
2018-01-13T08:29:57.726Z,36.96
2018-01-13T08:32:23.581Z,37.31
2018-01-13T08:34:49.534Z,36.91
2018-01-13T08:37:15.383Z,36.73
2018-01-13T08:39:41.247Z,36.87
2018-01-13T08:42:07.103Z,36.81
2018-01-13T08:44:32.910Z,36.53
2018-01-13T08:46:58.730Z,36.77
2018-01-13T08:49:24.549Z,36.70
2018-01-13T08:51:50.493Z,36.59
2018-01-13T08:54:16.303Z,36.95
2018-01-13T08:56:42.116Z,36.91
2018-01-13T08:59:08.058Z,36.82
2018-01-13T09:01:34.905Z,36.90
2018-01-13T09:04:00.730Z,37.28
2018-01-13T09:06:26.612Z,36.88
2018-01-13T09:08:52.427Z,36.82
2018-01-13T09:11:18.224Z,36.88
2018-01-13T09:13:44.197Z,37.55
2018-01-13T09:16:10.046Z,37.22
2018-01-13T09:18:35.957Z,38.70
2018-01-13T09:21:01.858Z,38.43
2018-01-13T09:23:27.730Z,37.23
2018-01-13T09:25:53.561Z,38.09
2018-01-13T09:28:20.473Z,37.05
2018-01-13T09:30:46.289Z,36.97
2018-01-13T09:33:12.146Z,37.09
2018-01-13T09:35:37.954Z,37.76
2018-01-13T09:38:03.807Z,37.68
2018-01-13T09:40:29.671Z,37.41
2018-01-13T09:42:55.485Z,37.62
2018-01-13T09:45:21.321Z,37.58
2018-01-13T09:47:47.199Z,37.66
2018-01-13T09:50:13.003Z,37.44
2018-01-13T09:52:38.829Z,37.68
2018-01-13T09:55:04.754Z,37.86
2018-01-13T09:57:30.553Z,37.46
2018-01-13T09:59:56.410Z,37.72
2018-01-13T10:02:22.219Z,37.80
2018-01-13T10:04:48.146Z,37.82
2018-01-13T10:07:13.958Z,37.60
2018-01-13T10:09:39.877Z,38.95
2018-01-13T10:12:05.714Z,38.79
2018-01-13T10:14:31.628Z,38.78
2018-01-13T10:16:57.454Z,38.50
2018-01-13T10:19:23.484Z,40.16
2018-01-13T10:21:49.361Z,39.42
2018-01-13T10:24:15.165Z,38.49
2018-01-13T10:26:41.138Z,37.65
2018-01-13T10:29:06.952Z,38.29
2018-01-13T10:31:32.807Z,38.25
2018-01-13T10:33:58.834Z,38.69
2018-01-13T10:36:24.655Z,37.78
2018-01-13T10:38:50.458Z,37.28
2018-01-13T10:41:16.259Z,37.26
2018-01-13T10:43:42.178Z,38.35
2018-01-13T10:46:07.988Z,38.20
2018-01-13T10:48:33.841Z,37.73
2018-01-13T10:50:59.658Z,39.16
2018-01-13T10:53:25.534Z,38.13
2018-01-13T10:55:51.341Z,38.50
2018-01-13T10:58:17.373Z,38.21
2018-01-13T11:00:43.181Z,38.56
2018-01-13T11:03:09.021Z,38.04
2018-01-13T11:05:34.969Z,39.04
2018-01-13T11:08:00.814Z,38.78
2018-01-13T11:10:26.813Z,39.29
2018-01-13T11:12:52.655Z,38.28
2018-01-13T11:15:18.466Z,39.24
2018-01-13T11:17:44.405Z,38.27
2018-01-13T11:20:10.284Z,39.36
2018-01-13T11:22:36.123Z,38.54
2018-01-13T11:25:02.038Z,38.41
2018-01-13T11:27:27.879Z,39.52
2018-01-13T11:29:53.906Z,39.15
2018-01-13T11:32:19.709Z,40.08
2018-01-13T11:34:45.622Z,40.20
2018-01-13T11:37:11.431Z,38.81
2018-01-13T11:39:37.398Z,38.41
2018-01-13T11:42:03.562Z,38.15
2018-01-13T11:44:29.370Z,39.13
2018-01-13T11:46:55.178Z,37.56
2018-01-13T11:49:21.046Z,37.14
2018-01-13T11:51:46.846Z,38.42
2018-01-13T11:54:12.682Z,38.65
2018-01-13T11:56:38.496Z,37.28
2018-01-13T11:59:04.366Z,37.29
2018-01-13T12:01:30.197Z,37.83
2018-01-13T12:03:56.049Z,37.41
2018-01-13T12:06:21.859Z,37.50
2018-01-13T12:08:47.670Z,36.97
2018-01-13T12:11:13.474Z,36.56
2018-01-13T12:13:39.286Z,36.76
2018-01-13T12:16:05.212Z,36.27
2018-01-13T12:18:31.062Z,36.29
2018-01-13T12:20:57.014Z,36.46
2018-01-13T12:23:22.951Z,36.14
2018-01-13T12:25:48.985Z,35.84
2018-01-13T12:28:14.794Z,35.55
2018-01-13T12:30:40.638Z,35.81
2018-01-13T12:33:06.530Z,35.52
2018-01-13T12:35:32.336Z,35.83
2018-01-13T12:37:58.138Z,36.41
2018-01-13T12:40:23.990Z,36.29
2018-01-13T12:42:49.853Z,36.19
2018-01-13T12:45:15.711Z,38.51
2018-01-13T12:47:41.517Z,36.31
2018-01-13T12:50:07.324Z,35.67
2018-01-13T12:52:33.150Z,35.58
2018-01-13T12:54:58.978Z,36.21
2018-01-13T12:57:24.789Z,36.22
2018-01-13T12:59:50.646Z,36.09
2018-01-13T13:02:16.722Z,37.11
2018-01-13T13:04:42.537Z,36.47
2018-01-13T13:07:08.341Z,38.32
2018-01-13T13:09:34.342Z,38.84
2018-01-13T13:12:00.154Z,41.18
2018-01-13T13:14:25.963Z,36.38
2018-01-13T13:16:51.767Z,36.18
2018-01-13T13:19:17.714Z,35.97
2018-01-13T13:21:43.570Z,37.86
2018-01-13T13:24:09.370Z,37.37
2018-01-13T13:26:35.382Z,38.03
2018-01-13T13:29:01.235Z,36.58
2018-01-13T13:31:27.046Z,36.80
2018-01-13T13:33:52.892Z,37.02
2018-01-13T13:36:18.738Z,36.40
2018-01-13T13:38:44.549Z,35.73
2018-01-13T13:41:10.566Z,35.57
2018-01-13T13:43:36.590Z,36.06
2018-01-13T13:46:02.459Z,35.62
2018-01-13T13:48:28.266Z,35.66
2018-01-13T13:50:54.079Z,37.02
2018-01-13T13:53:19.974Z,36.51
2018-01-13T13:55:45.773Z,36.57
2018-01-13T13:58:11.762Z,36.33
2018-01-13T14:00:37.677Z,35.61
2018-01-13T14:03:03.601Z,36.05
2018-01-13T14:05:29.465Z,35.54
2018-01-13T14:07:55.271Z,36.58
2018-01-13T14:10:21.126Z,35.61
2018-01-13T14:12:46.978Z,36.52
2018-01-13T14:15:12.796Z,35.59
2018-01-13T14:17:38.611Z,35.66
2018-01-13T14:20:04.463Z,36.01
2018-01-13T14:22:30.322Z,36.70
2018-01-13T14:24:56.130Z,36.29
2018-01-13T14:27:21.943Z,36.33
2018-01-13T14:29:47.755Z,35.72
2018-01-13T14:32:13.578Z,35.63
2018-01-13T14:34:39.430Z,35.70
2018-01-13T14:37:05.243Z,35.43
2018-01-13T14:39:31.100Z,34.74
2018-01-13T14:41:57.216Z,34.27
2018-01-13T14:44:23.089Z,35.28
2018-01-13T14:46:48.899Z,35.02
2018-01-13T14:49:14.830Z,34.63
2018-01-13T14:51:40.646Z,34.54
2018-01-13T14:54:07.145Z,34.46
2018-01-13T14:56:33.067Z,34.44
2018-01-13T14:58:58.990Z,36.64
2018-01-13T15:01:24.922Z,35.58
2018-01-13T15:03:50.999Z,35.03
2018-01-13T15:06:17.095Z,35.23
2018-01-13T15:08:43.030Z,34.92
2018-01-13T15:11:08.841Z,34.88
2018-01-13T15:13:34.747Z,34.57
2018-01-13T15:16:00.763Z,35.39
2018-01-13T15:18:26.614Z,34.78
2018-01-13T15:20:52.476Z,34.79
2018-01-13T15:23:18.418Z,34.83
2018-01-13T15:25:44.226Z,34.65
2018-01-13T15:28:10.148Z,34.67
2018-01-13T15:30:35.950Z,34.82
2018-01-13T15:33:01.798Z,35.15
2018-01-13T15:35:27.617Z,35.48
2018-01-13T15:37:53.549Z,34.88
2018-01-13T15:40:19.354Z,34.77
2018-01-13T15:42:45.230Z,34.57
2018-01-13T15:45:11.208Z,34.50
2018-01-13T15:47:37.350Z,34.64
2018-01-13T15:50:03.204Z,34.58
2018-01-13T15:52:29.018Z,34.60
2018-01-13T15:54:54.941Z,34.41
2018-01-13T15:57:20.759Z,34.73
2018-01-13T15:59:46.566Z,34.68
2018-01-13T16:02:12.381Z,34.72
2018-01-13T16:04:38.239Z,34.63
2018-01-13T16:07:04.095Z,34.82
2018-01-13T16:09:29.901Z,34.88
2018-01-13T16:11:55.757Z,34.75
2018-01-13T16:14:21.570Z,34.75
2018-01-13T16:16:47.519Z,34.64
2018-01-13T16:19:13.325Z,34.82
2018-01-13T16:21:39.195Z,34.79
2018-01-13T16:24:04.998Z,34.93
2018-01-13T16:26:30.857Z,34.90
2018-01-13T16:28:56.664Z,34.96
2018-01-13T16:31:22.468Z,34.99
2018-01-13T16:33:48.279Z,35.00
2018-01-13T16:36:14.090Z,34.97
2018-01-13T16:38:39.902Z,34.90
2018-01-13T16:41:05.713Z,34.82
2018-01-13T16:43:31.602Z,34.79
2018-01-13T16:45:57.414Z,34.84
2018-01-13T16:48:23.222Z,34.80
2018-01-13T16:50:49.030Z,34.89
2018-01-13T16:53:14.881Z,36.22
2018-01-13T16:55:40.695Z,35.06
2018-01-13T16:58:06.510Z,35.00
2018-01-13T17:00:32.322Z,34.93
2018-01-13T17:02:58.134Z,34.92
2018-01-13T17:05:23.943Z,34.70
2018-01-13T17:07:49.762Z,34.86
2018-01-13T17:10:15.615Z,36.54
2018-01-13T17:12:41.425Z,35.00
2018-01-13T17:15:07.240Z,34.51
2018-01-13T17:17:33.050Z,34.66
2018-01-13T17:19:58.866Z,36.26
2018-01-13T17:22:24.683Z,35.89
2018-01-13T17:24:50.506Z,35.21
2018-01-13T17:27:16.386Z,35.25
2018-01-13T17:29:42.345Z,35.29
2018-01-13T17:32:08.154Z,34.70
2018-01-13T17:34:34.033Z,34.31
2018-01-13T17:36:59.862Z,34.58
2018-01-13T17:39:25.686Z,34.71
2018-01-13T17:41:51.538Z,34.85
2018-01-13T17:44:17.546Z,34.88
2018-01-13T17:46:43.421Z,36.31
2018-01-13T17:49:09.278Z,34.83
2018-01-13T17:51:35.090Z,35.12
2018-01-13T17:54:00.902Z,34.74
2018-01-13T17:56:26.769Z,34.78
2018-01-13T17:58:52.581Z,34.80
2018-01-13T18:01:18.441Z,34.74
2018-01-13T18:03:44.256Z,34.52
2018-01-13T18:06:10.123Z,34.51
2018-01-13T18:08:35.926Z,34.83
2018-01-13T18:11:01.791Z,34.88
2018-01-13T18:13:27.658Z,35.29
2018-01-13T18:15:53.534Z,35.25
2018-01-13T18:18:19.338Z,35.92
2018-01-13T18:20:45.189Z,35.21
2018-01-13T18:23:11.038Z,35.40
2018-01-13T18:25:36.847Z,35.16
2018-01-13T18:28:02.669Z,34.62
2018-01-13T18:30:28.486Z,34.52
2018-01-13T18:32:54.294Z,34.56
2018-01-13T18:35:20.278Z,34.77
2018-01-13T18:37:46.314Z,34.49
2018-01-13T18:40:12.124Z,34.37
2018-01-13T18:42:38.050Z,34.44
2018-01-13T18:45:03.981Z,34.37
2018-01-13T18:47:29.840Z,34.35
2018-01-13T18:49:55.811Z,34.59
2018-01-13T18:52:21.625Z,34.52
2018-01-13T18:54:47.446Z,34.46
2018-01-13T18:57:13.335Z,35.28
2018-01-13T18:59:39.169Z,34.64
2018-01-13T19:02:04.990Z,34.66
2018-01-13T19:04:30.858Z,34.50
2018-01-13T19:06:56.790Z,34.40
2018-01-13T19:09:22.647Z,34.33
2018-01-13T19:11:48.466Z,34.61
2018-01-13T19:14:14.542Z,34.36
2018-01-13T19:16:40.546Z,34.63
2018-01-13T19:19:06.457Z,34.48
2018-01-13T19:21:32.310Z,34.51
2018-01-13T19:23:58.187Z,34.34
2018-01-13T19:26:24.106Z,34.51
2018-01-13T19:28:50.179Z,34.54
2018-01-13T19:31:16.198Z,34.61
2018-01-13T19:33:42.018Z,34.64
2018-01-13T19:36:07.842Z,35.83
2018-01-13T19:38:33.695Z,36.19
2018-01-13T19:40:59.558Z,36.11
2018-01-13T19:43:25.383Z,37.28
2018-01-13T19:45:51.259Z,37.17
2018-01-13T19:48:17.263Z,35.95
2018-01-13T19:50:43.074Z,35.78
2018-01-13T19:53:09.042Z,36.93
2018-01-13T19:55:34.955Z,38.20
2018-01-13T19:58:00.887Z,35.91
2018-01-13T20:00:26.703Z,35.65
2018-01-13T20:02:52.522Z,35.71
2018-01-13T20:05:18.334Z,35.71
2018-01-13T20:07:44.150Z,37.82
2018-01-13T20:10:10.035Z,36.11
2018-01-13T20:12:35.859Z,35.58
2018-01-13T20:15:01.847Z,37.25
2018-01-13T20:17:27.675Z,36.14
2018-01-13T20:19:54.648Z,35.31
2018-01-13T20:22:20.468Z,36.26
2018-01-13T20:24:47.264Z,35.32
2018-01-13T20:27:13.195Z,35.07
2018-01-13T20:29:39.145Z,35.87
2018-01-13T20:32:04.994Z,35.48
2018-01-13T20:34:30.931Z,35.76
2018-01-13T20:36:56.917Z,35.28
2018-01-13T20:39:22.807Z,36.48
2018-01-13T20:41:48.743Z,37.52
2018-01-13T20:44:14.607Z,36.62
2018-01-13T20:46:40.486Z,37.37
2018-01-13T20:49:06.414Z,37.50
2018-01-13T20:51:32.366Z,36.71
2018-01-13T20:53:58.306Z,38.69
2018-01-13T20:56:24.295Z,36.52
2018-01-13T20:58:50.316Z,36.65
2018-01-13T21:01:16.150Z,36.40
2018-01-13T21:03:43.813Z,35.71
2018-01-13T21:06:09.795Z,37.08
2018-01-13T21:08:35.658Z,36.51
2018-01-13T21:11:01.635Z,37.85
2018-01-13T21:13:27.511Z,36.79
2018-01-13T21:15:55.564Z,35.96
2018-01-13T21:18:22.660Z,35.88
2018-01-13T21:20:49.418Z,35.93
2018-01-13T21:23:15.284Z,36.37
2018-01-13T21:25:41.195Z,36.08
2018-01-13T21:28:07.191Z,37.93
2018-01-13T21:30:33.078Z,37.78
2018-01-13T21:32:58.922Z,37.17
2018-01-13T21:35:24.799Z,39.33
2018-01-13T21:37:50.651Z,36.50
2018-01-13T21:40:16.503Z,39.01
2018-01-13T21:42:42.366Z,37.85
2018-01-13T21:45:08.328Z,37.99
2018-01-13T21:47:34.174Z,40.97
2018-01-13T21:50:00.005Z,36.52
2018-01-13T21:52:25.824Z,38.01
2018-01-13T21:54:51.707Z,37.69
2018-01-13T21:57:17.578Z,38.10
2018-01-13T21:59:43.401Z,40.26
2018-01-13T22:02:09.269Z,39.60
2018-01-13T22:04:35.163Z,38.45
2018-01-13T22:07:01.110Z,38.65
2018-01-13T22:09:27.040Z,37.57
2018-01-13T22:11:53.094Z,38.03
2018-01-13T22:14:19.084Z,39.48
2018-01-13T22:16:44.925Z,39.02
2018-01-13T22:19:10.932Z,37.69
2018-01-13T22:21:37.010Z,38.58
2018-01-13T22:24:02.859Z,37.15
2018-01-13T22:26:28.842Z,39.07
2018-01-13T22:28:54.663Z,37.47
2018-01-13T22:31:20.670Z,37.80
2018-01-13T22:33:46.636Z,36.50
2018-01-13T22:36:12.637Z,37.00
2018-01-13T22:38:38.454Z,36.87
2018-01-13T22:41:04.274Z,38.34
2018-01-13T22:43:30.086Z,37.51
2018-01-13T22:45:55.910Z,36.84
2018-01-13T22:48:21.779Z,38.15
2018-01-13T22:50:47.645Z,36.60
2018-01-13T22:53:13.518Z,36.97
2018-01-13T22:55:39.342Z,37.26
2018-01-13T22:58:05.203Z,36.54
2018-01-13T23:00:32.127Z,36.02
2018-01-13T23:02:57.947Z,36.34
2018-01-13T23:05:23.763Z,35.25
2018-01-13T23:07:49.587Z,35.61
2018-01-13T23:10:15.427Z,37.22
2018-01-13T23:12:41.387Z,36.48
2018-01-13T23:15:07.203Z,35.65
2018-01-13T23:17:33.038Z,35.28
2018-01-13T23:19:58.858Z,35.15
2018-01-13T23:22:24.710Z,35.80
2018-01-13T23:24:50.526Z,35.68
2018-01-13T23:27:21.226Z,35.37
2018-01-13T23:29:47.050Z,35.08
2018-01-13T23:32:12.915Z,34.88
2018-01-13T23:34:38.738Z,37.29
2018-01-13T23:37:05.518Z,37.77
2018-01-13T23:39:31.337Z,35.43
2018-01-13T23:41:57.159Z,36.88
2018-01-13T23:44:23.014Z,37.28
2018-01-13T23:46:48.851Z,35.95
2018-01-13T23:49:14.944Z,35.43
2018-01-13T23:51:40.767Z,37.33
2018-01-13T23:54:06.713Z,37.84
2018-01-13T23:56:32.531Z,37.33
2018-01-13T23:58:58.354Z,38.60
